createdAt,value
2019-03-28T00:00:16.712Z,77.44
2019-03-28T00:02:50.081Z,77.54
2019-03-28T00:05:23.486Z,77.90
2019-03-28T00:07:56.922Z,78.12
2019-03-28T00:10:30.317Z,78.44
2019-03-28T00:13:03.768Z,78.86
2019-03-28T00:15:37.118Z,79.20
2019-03-28T00:18:10.484Z,78.92
2019-03-28T00:20:43.832Z,78.75
2019-03-28T00:23:19.279Z,78.59
2019-03-28T00:25:52.703Z,78.54
2019-03-28T00:28:26.076Z,78.61
2019-03-28T00:30:59.574Z,79.42
2019-03-28T00:33:33.087Z,79.60
2019-03-28T00:36:06.500Z,79.63
2019-03-28T00:38:39.929Z,79.79
2019-03-28T00:41:13.406Z,79.89
2019-03-28T00:43:46.834Z,79.92
2019-03-28T00:46:20.187Z,79.84
2019-03-28T00:48:53.566Z,79.73
2019-03-28T00:51:26.904Z,80.19
2019-03-28T00:54:00.241Z,79.90
2019-03-28T00:56:46.447Z,79.88
2019-03-28T00:59:08.669Z,79.58
2019-03-28T01:01:42.082Z,79.65
2019-03-28T01:04:15.585Z,79.52
2019-03-28T01:06:48.939Z,79.40
2019-03-28T01:09:22.281Z,80.00
2019-03-28T01:11:55.685Z,80.07
2019-03-28T01:14:29.113Z,79.79
2019-03-28T01:17:02.530Z,79.90
2019-03-28T01:19:35.903Z,79.86
2019-03-28T01:22:09.312Z,79.75
2019-03-28T01:24:42.752Z,80.04
2019-03-28T01:27:16.168Z,80.73
2019-03-28T01:29:49.533Z,80.92
2019-03-28T01:32:22.938Z,80.61
2019-03-28T01:34:56.288Z,80.80
2019-03-28T01:37:29.641Z,81.13
2019-03-28T01:40:03.079Z,81.55
2019-03-28T01:42:36.408Z,82.01
2019-03-28T01:45:10.232Z,81.92
2019-03-28T01:47:43.606Z,82.14
2019-03-28T01:50:16.943Z,82.31
2019-03-28T01:52:50.376Z,82.33
2019-03-28T01:55:23.764Z,82.38
2019-03-28T01:57:57.185Z,82.35
2019-03-28T02:00:30.584Z,82.49
2019-03-28T02:03:03.992Z,82.73
2019-03-28T02:05:37.443Z,82.20
2019-03-28T02:08:10.879Z,81.64
2019-03-28T02:10:44.248Z,82.04
2019-03-28T02:13:17.579Z,82.24
2019-03-28T02:15:50.948Z,81.73
2019-03-28T02:18:24.276Z,81.72
2019-03-28T02:20:57.613Z,81.83
2019-03-28T02:23:31.046Z,81.83
2019-03-28T02:26:04.466Z,81.80
2019-03-28T02:28:37.829Z,82.00
2019-03-28T02:31:11.168Z,81.74
2019-03-28T02:33:44.533Z,82.22
2019-03-28T02:36:17.934Z,82.55
2019-03-28T02:38:51.375Z,82.53
2019-03-28T02:41:24.801Z,82.66
2019-03-28T02:43:58.236Z,82.34
2019-03-28T02:46:31.590Z,82.27
2019-03-28T02:49:05.059Z,83.27
2019-03-28T02:51:38.395Z,83.49
2019-03-28T02:54:11.822Z,83.80
2019-03-28T02:56:45.227Z,83.69
2019-03-28T02:59:18.666Z,84.19
2019-03-28T03:01:52.071Z,84.30
2019-03-28T03:04:25.471Z,84.06
2019-03-28T03:06:58.848Z,84.00
2019-03-28T03:09:32.360Z,84.33
2019-03-28T03:12:05.788Z,84.34
2019-03-28T03:14:39.117Z,83.83
2019-03-28T03:17:12.524Z,83.18
2019-03-28T03:19:45.989Z,82.87
2019-03-28T03:22:19.316Z,82.87
2019-03-28T03:24:52.762Z,82.66
2019-03-28T03:27:26.119Z,82.97
2019-03-28T03:29:59.501Z,82.58
2019-03-28T03:32:32.820Z,82.97
2019-03-28T03:35:06.256Z,83.06
2019-03-28T03:37:39.668Z,83.41
2019-03-28T03:40:13.463Z,83.94
2019-03-28T03:42:46.809Z,84.12
2019-03-28T03:45:20.191Z,84.06
2019-03-28T03:47:53.534Z,83.66
2019-03-28T03:50:29.977Z,83.89
2019-03-28T03:53:03.312Z,83.56
2019-03-28T03:55:36.737Z,83.21
2019-03-28T03:58:16.103Z,83.24
2019-03-28T04:00:45.217Z,83.21
2019-03-28T04:03:18.658Z,82.87
2019-03-28T04:05:52.101Z,83.19
2019-03-28T04:08:26.957Z,82.68
2019-03-28T04:11:00.479Z,82.75
2019-03-28T04:13:33.811Z,82.91
2019-03-28T04:16:07.190Z,83.21
2019-03-28T04:18:40.589Z,83.44
2019-03-28T04:21:13.968Z,83.57
2019-03-28T04:23:47.322Z,83.88
2019-03-28T04:26:20.746Z,83.66
2019-03-28T04:28:54.089Z,82.95
2019-03-28T04:31:27.459Z,83.47
2019-03-28T04:34:07.014Z,83.49
2019-03-28T04:36:35.972Z,83.60
2019-03-28T04:39:09.379Z,83.88
2019-03-28T04:41:42.767Z,84.19
2019-03-28T04:44:16.128Z,84.63
2019-03-28T04:46:49.573Z,84.50
2019-03-28T04:49:22.972Z,83.92
2019-03-28T04:51:56.419Z,84.18
2019-03-28T04:54:29.804Z,84.04
2019-03-28T04:57:03.215Z,83.39
2019-03-28T04:59:36.581Z,82.80
2019-03-28T05:02:10.026Z,82.06
2019-03-28T05:04:43.398Z,82.45
2019-03-28T05:07:16.746Z,82.83
2019-03-28T05:09:50.360Z,83.08
2019-03-28T05:12:23.866Z,83.37
2019-03-28T05:14:57.298Z,83.21
2019-03-28T05:17:30.637Z,83.08
2019-03-28T05:20:08.023Z,83.09
2019-03-28T05:22:41.371Z,82.92
2019-03-28T05:25:14.803Z,83.27
2019-03-28T05:27:48.235Z,83.72
2019-03-28T05:30:21.703Z,84.18
2019-03-28T05:32:55.140Z,83.52
2019-03-28T05:35:28.516Z,83.08
2019-03-28T05:38:02.450Z,82.78
2019-03-28T05:40:36.466Z,82.85
2019-03-28T05:43:10.193Z,83.10
2019-03-28T05:45:44.459Z,82.39
2019-03-28T05:48:18.688Z,81.33
2019-03-28T05:50:52.129Z,80.83
2019-03-28T05:53:25.479Z,78.94
2019-03-28T05:55:58.829Z,79.01
2019-03-28T05:58:32.252Z,79.47
2019-03-28T06:01:06.362Z,79.32
2019-03-28T06:03:39.865Z,79.19
2019-03-28T06:06:13.173Z,79.42
2019-03-28T06:08:46.629Z,79.61
2019-03-28T06:11:20.045Z,80.53
2019-03-28T06:13:53.416Z,82.17
2019-03-28T06:16:26.762Z,80.99
2019-03-28T06:19:00.195Z,81.18
2019-03-28T06:21:33.559Z,80.18
2019-03-28T06:24:07.066Z,80.55
2019-03-28T06:26:41.390Z,80.41
2019-03-28T06:29:23.761Z,78.81
2019-03-28T06:31:55.571Z,78.16
2019-03-28T06:34:25.015Z,78.04
2019-03-28T06:36:58.442Z,77.47
2019-03-28T06:39:31.873Z,76.28
2019-03-28T06:42:05.314Z,74.42
2019-03-28T06:44:38.666Z,73.22
2019-03-28T06:47:12.010Z,74.10
2019-03-28T06:49:45.385Z,74.02
2019-03-28T06:52:18.754Z,73.93
2019-03-28T06:54:52.111Z,72.98
2019-03-28T06:57:25.491Z,72.76
2019-03-28T06:59:58.862Z,72.95
2019-03-28T07:02:32.239Z,73.02
2019-03-28T07:05:06.118Z,72.18
2019-03-28T07:07:39.556Z,72.39
2019-03-28T07:10:13.032Z,75.28
2019-03-28T07:12:46.491Z,74.60
2019-03-28T07:15:20.519Z,74.06
2019-03-28T07:17:54.049Z,75.33
2019-03-28T07:20:27.408Z,74.75
2019-03-28T07:23:00.847Z,72.99
2019-03-28T07:25:34.284Z,73.33
2019-03-28T07:28:07.713Z,72.93
2019-03-28T07:30:41.135Z,73.40
2019-03-28T07:33:14.484Z,71.18
2019-03-28T07:35:47.919Z,72.26
2019-03-28T07:38:21.346Z,72.58
2019-03-28T07:40:54.719Z,73.21
2019-03-28T07:43:28.200Z,71.89
2019-03-28T07:46:01.614Z,69.21
2019-03-28T07:48:35.037Z,69.50
2019-03-28T07:51:08.371Z,69.58
2019-03-28T07:53:41.870Z,70.26
2019-03-28T07:56:15.204Z,69.69
2019-03-28T07:58:48.642Z,70.16
2019-03-28T08:01:21.979Z,70.11
2019-03-28T08:03:55.413Z,69.73
2019-03-28T08:06:28.767Z,69.79
2019-03-28T08:09:02.149Z,69.50
2019-03-28T08:11:35.594Z,70.10
2019-03-28T08:14:09.018Z,70.39
2019-03-28T08:16:42.365Z,68.88
2019-03-28T08:19:15.796Z,67.48
2019-03-28T08:21:49.217Z,64.70
2019-03-28T08:24:22.599Z,63.98
2019-03-28T08:26:56.001Z,64.88
2019-03-28T08:29:29.365Z,64.36
2019-03-28T08:32:04.362Z,62.63
2019-03-28T08:34:37.774Z,62.95
2019-03-28T08:37:11.345Z,62.25
2019-03-28T08:39:45.059Z,62.90
2019-03-28T08:42:19.582Z,62.99
2019-03-28T08:44:53.311Z,62.27
2019-03-28T08:47:26.636Z,62.19
2019-03-28T08:49:59.999Z,60.93
2019-03-28T08:52:33.344Z,61.61
2019-03-28T08:55:10.004Z,61.22
2019-03-28T08:57:43.276Z,61.58
2019-03-28T09:00:17.492Z,60.95
2019-03-28T09:02:52.524Z,60.56
2019-03-28T09:05:25.904Z,60.98
2019-03-28T09:07:59.399Z,60.71
2019-03-28T09:10:32.831Z,59.26
2019-03-28T09:13:06.266Z,58.60
2019-03-28T09:15:43.889Z,58.18
2019-03-28T09:18:14.718Z,58.79
2019-03-28T09:20:48.155Z,58.52
2019-03-28T09:23:21.521Z,56.99
2019-03-28T09:25:54.966Z,58.15
2019-03-28T09:28:28.336Z,56.14
2019-03-28T09:31:01.889Z,57.69
2019-03-28T09:33:35.309Z,56.76
2019-03-28T09:36:08.693Z,55.63
2019-03-28T09:38:42.178Z,57.15
2019-03-28T09:41:15.732Z,56.23
2019-03-28T09:43:55.145Z,55.95
2019-03-28T09:46:24.264Z,55.75
2019-03-28T09:48:57.675Z,55.82
2019-03-28T09:51:31.054Z,55.87
2019-03-28T09:54:04.585Z,54.67
2019-03-28T09:56:38.017Z,55.78
2019-03-28T09:59:11.349Z,55.08
2019-03-28T10:01:44.790Z,53.68
2019-03-28T10:04:18.219Z,52.71
2019-03-28T10:06:51.615Z,53.38
2019-03-28T10:09:24.998Z,52.93
2019-03-28T10:11:58.428Z,51.81
2019-03-28T10:14:31.833Z,51.17
2019-03-28T10:17:05.350Z,49.96
2019-03-28T10:19:38.764Z,50.36
2019-03-28T10:22:12.218Z,51.40
2019-03-28T10:24:45.655Z,49.97
2019-03-28T10:27:19.468Z,49.06
2019-03-28T10:29:52.984Z,49.85
2019-03-28T10:32:26.368Z,50.16
2019-03-28T10:34:59.785Z,49.94
2019-03-28T10:37:33.150Z,49.13
2019-03-28T10:40:07.621Z,49.42
2019-03-28T10:42:40.970Z,48.67
2019-03-28T10:45:14.465Z,48.59
2019-03-28T10:47:47.897Z,48.04
2019-03-28T10:50:21.313Z,48.19
2019-03-28T10:52:54.824Z,47.81
2019-03-28T10:55:28.262Z,47.83
2019-03-28T10:58:01.700Z,47.72
2019-03-28T11:00:35.282Z,46.84
2019-03-28T11:03:08.731Z,47.98
2019-03-28T11:05:42.067Z,48.08
2019-03-28T11:08:16.553Z,48.14
2019-03-28T11:10:50.006Z,48.41
2019-03-28T11:13:23.366Z,48.17
2019-03-28T11:15:56.728Z,48.97
2019-03-28T11:18:30.165Z,48.69
2019-03-28T11:21:03.565Z,49.00
2019-03-28T11:23:36.950Z,47.79
2019-03-28T11:26:10.281Z,47.54
2019-03-28T11:28:43.634Z,48.20
2019-03-28T11:31:17.664Z,47.95
2019-03-28T11:33:53.919Z,47.12
2019-03-28T11:36:27.258Z,48.23
2019-03-28T11:39:02.880Z,48.25
2019-03-28T11:41:35.819Z,47.70
2019-03-28T11:44:09.255Z,48.22
2019-03-28T11:46:42.668Z,47.16
2019-03-28T11:49:16.037Z,48.16
2019-03-28T11:51:49.391Z,47.10
2019-03-28T11:54:22.877Z,46.76
2019-03-28T11:56:56.245Z,46.90
2019-03-28T11:59:29.612Z,46.32
2019-03-28T12:02:19.108Z,46.32
2019-03-28T12:04:41.192Z,46.60
2019-03-28T12:07:14.579Z,46.25
2019-03-28T12:09:47.959Z,47.10
2019-03-28T12:12:21.389Z,45.47
2019-03-28T12:14:54.834Z,45.85
2019-03-28T12:17:28.300Z,45.80
2019-03-28T12:20:01.651Z,44.88
2019-03-28T12:22:35.120Z,46.34
2019-03-28T12:25:09.031Z,45.47
2019-03-28T12:27:42.521Z,45.72
2019-03-28T12:30:16.481Z,44.96
2019-03-28T12:32:50.813Z,45.84
2019-03-28T12:35:24.227Z,46.38
2019-03-28T12:37:57.644Z,46.26
2019-03-28T12:40:31.147Z,44.55
2019-03-28T12:43:04.574Z,44.99
2019-03-28T12:45:38.010Z,45.28
2019-03-28T12:48:11.441Z,45.57
2019-03-28T12:50:58.041Z,45.57
2019-03-28T12:53:19.930Z,44.78
2019-03-28T12:55:54.284Z,45.02
2019-03-28T12:58:27.631Z,45.02
2019-03-28T13:01:01.070Z,45.44
2019-03-28T13:03:44.729Z,45.26
2019-03-28T13:06:09.552Z,45.29
2019-03-28T13:08:43.755Z,45.29
2019-03-28T13:11:17.354Z,43.59
2019-03-28T13:13:50.806Z,44.47
2019-03-28T13:16:24.195Z,44.47
2019-03-28T13:18:57.537Z,43.96
2019-03-28T13:21:30.902Z,44.25
2019-03-28T13:24:07.667Z,44.52
2019-03-28T13:26:39.563Z,44.10
2019-03-28T13:29:12.989Z,44.29
2019-03-28T13:31:46.357Z,43.40
2019-03-28T13:34:19.700Z,42.99
2019-03-28T13:36:53.128Z,41.16
2019-03-28T13:39:26.449Z,42.87
2019-03-28T13:41:59.811Z,42.59
2019-03-28T13:44:33.231Z,42.60
2019-03-28T13:47:06.672Z,43.19
2019-03-28T13:49:40.110Z,43.13
2019-03-28T13:52:13.468Z,44.22
2019-03-28T13:54:46.891Z,43.86
2019-03-28T13:57:20.277Z,43.78
2019-03-28T13:59:53.622Z,42.61
2019-03-28T14:02:27.020Z,43.19
2019-03-28T14:05:00.371Z,43.26
2019-03-28T14:07:33.726Z,42.99
2019-03-28T14:10:07.520Z,43.43
2019-03-28T14:12:40.969Z,44.14
2019-03-28T14:15:14.450Z,44.76
2019-03-28T14:17:47.889Z,42.80
2019-03-28T14:20:22.430Z,42.92
2019-03-28T14:22:55.988Z,42.98
2019-03-28T14:25:29.344Z,43.24
2019-03-28T14:28:02.686Z,42.99
2019-03-28T14:30:39.338Z,42.06
2019-03-28T14:33:14.335Z,41.23
2019-03-28T14:35:46.292Z,41.45
2019-03-28T14:38:19.645Z,41.20
2019-03-28T14:40:52.992Z,42.09
2019-03-28T14:43:26.477Z,41.21
2019-03-28T14:45:59.982Z,41.44
2019-03-28T14:48:33.394Z,41.47
2019-03-28T14:51:06.777Z,41.62
2019-03-28T14:53:40.216Z,41.62
2019-03-28T14:56:13.638Z,42.07
2019-03-28T14:58:47.903Z,41.82
2019-03-28T15:01:21.359Z,41.35
2019-03-28T15:03:54.705Z,42.99
2019-03-28T15:06:28.155Z,42.92
2019-03-28T15:09:01.478Z,43.54
2019-03-28T15:11:34.851Z,43.53
2019-03-28T15:14:08.203Z,43.35
2019-03-28T15:16:41.666Z,43.11
2019-03-28T15:19:15.053Z,43.84
2019-03-28T15:21:48.487Z,44.33
2019-03-28T15:24:21.895Z,44.87
2019-03-28T15:26:55.443Z,45.96
2019-03-28T15:29:28.730Z,46.92
2019-03-28T15:32:02.144Z,47.07
2019-03-28T15:34:35.546Z,46.43
2019-03-28T15:37:09.059Z,46.69
2019-03-28T15:39:42.547Z,46.92
2019-03-28T15:42:15.967Z,46.70
2019-03-28T15:44:49.376Z,47.83
2019-03-28T15:47:22.817Z,47.83
2019-03-28T15:49:56.182Z,48.21
2019-03-28T15:52:29.649Z,48.32
2019-03-28T15:55:03.119Z,48.46
2019-03-28T15:57:36.489Z,48.53
2019-03-28T16:00:10.335Z,48.53
2019-03-28T16:02:43.778Z,48.38
2019-03-28T16:05:17.165Z,48.42
2019-03-28T16:07:50.553Z,48.55
2019-03-28T16:10:23.893Z,49.88
2019-03-28T16:12:57.587Z,49.88
2019-03-28T16:15:31.023Z,49.58
2019-03-28T16:18:04.445Z,49.40
2019-03-28T16:20:37.803Z,48.48
2019-03-28T16:23:11.238Z,48.20
2019-03-28T16:25:44.604Z,48.20
2019-03-28T16:28:17.969Z,47.85
2019-03-28T16:30:51.400Z,47.48
2019-03-28T16:33:24.887Z,47.97
2019-03-28T16:35:58.245Z,48.38
2019-03-28T16:38:33.017Z,48.81
2019-03-28T16:41:06.419Z,49.14
2019-03-28T16:43:39.811Z,49.53
2019-03-28T16:46:13.288Z,49.72
2019-03-28T16:48:46.720Z,49.88
2019-03-28T16:51:20.075Z,49.87
2019-03-28T16:53:53.577Z,50.06
2019-03-28T16:56:26.901Z,50.54
2019-03-28T16:59:00.289Z,50.92
2019-03-28T17:01:34.649Z,50.91
2019-03-28T17:04:20.532Z,51.05
2019-03-28T17:06:49.453Z,51.34
2019-03-28T17:09:23.461Z,51.49
2019-03-28T17:11:59.098Z,51.94
2019-03-28T17:14:34.696Z,52.06
2019-03-28T17:17:08.783Z,52.18
2019-03-28T17:19:42.861Z,52.37
2019-03-28T17:22:16.579Z,52.79
2019-03-28T17:24:50.040Z,52.74
2019-03-28T17:27:23.458Z,53.01
2019-03-28T17:29:58.219Z,53.44
2019-03-28T17:32:41.935Z,53.52
2019-03-28T17:35:15.351Z,53.74
2019-03-28T17:37:48.712Z,53.65
2019-03-28T17:40:22.197Z,53.59
2019-03-28T17:42:55.612Z,53.83
2019-03-28T17:45:29.130Z,54.12
2019-03-28T17:48:02.812Z,54.35
2019-03-28T17:50:36.541Z,54.25
2019-03-28T17:53:09.901Z,54.18
2019-03-28T17:55:45.459Z,54.43
2019-03-28T17:58:19.037Z,54.53
2019-03-28T18:00:52.584Z,55.02
2019-03-28T18:03:31.513Z,54.98
2019-03-28T18:06:02.344Z,55.13
2019-03-28T18:08:35.675Z,55.22
2019-03-28T18:11:09.309Z,55.40
2019-03-28T18:13:42.974Z,55.86
2019-03-28T18:16:18.122Z,56.06
2019-03-28T18:18:51.569Z,56.36
2019-03-28T18:21:25.036Z,56.37
2019-03-28T18:23:58.469Z,56.33
2019-03-28T18:26:31.995Z,56.13
2019-03-28T18:29:05.491Z,55.93
2019-03-28T18:31:50.436Z,55.96
2019-03-28T18:34:45.112Z,56.02
2019-03-28T18:43:19.564Z,56.31
2019-03-28T18:45:59.850Z,56.35
2019-03-28T18:51:49.817Z,56.48
2019-03-28T18:54:23.816Z,56.64
2019-03-28T18:56:57.169Z,56.85
2019-03-28T18:59:30.848Z,56.22
2019-03-28T19:02:19.049Z,56.28
2019-03-28T19:04:53.221Z,55.99
2019-03-28T19:07:26.673Z,56.25
2019-03-28T19:10:00.400Z,56.35
2019-03-28T19:12:36.261Z,56.29
2019-03-28T19:15:09.995Z,56.45
2019-03-28T19:17:43.529Z,56.42
2019-03-28T19:20:17.043Z,56.71
2019-03-28T19:22:50.504Z,56.63
2019-03-28T19:25:23.942Z,56.88
2019-03-28T19:27:57.357Z,57.53
2019-03-28T19:30:32.812Z,57.32
2019-03-28T19:33:07.083Z,57.78
2019-03-28T19:35:41.237Z,58.00
2019-03-28T19:38:14.792Z,58.28
2019-03-28T19:40:48.244Z,58.62
2019-03-28T19:43:22.968Z,59.00
2019-03-28T19:45:56.679Z,59.18
2019-03-28T19:48:30.167Z,59.54
2019-03-28T19:51:03.596Z,59.81
2019-03-28T19:53:37.014Z,60.33
2019-03-28T19:56:10.365Z,60.54
2019-03-28T19:58:43.785Z,60.69
2019-03-28T20:01:18.091Z,61.15
2019-03-28T20:03:52.506Z,60.64
2019-03-28T20:06:26.532Z,60.93
2019-03-28T20:08:59.955Z,61.31
2019-03-28T20:11:36.856Z,61.21
2019-03-28T20:14:10.448Z,61.30
2019-03-28T20:16:43.938Z,61.47
2019-03-28T20:19:17.939Z,61.45
2019-03-28T20:21:51.381Z,61.98
2019-03-28T20:24:25.615Z,62.11
2019-03-28T20:26:59.393Z,62.26
2019-03-28T20:29:33.500Z,62.67
2019-03-28T20:32:08.329Z,62.66
2019-03-28T20:34:41.921Z,62.89
2019-03-28T20:37:15.367Z,63.04
2019-03-28T20:39:48.808Z,63.58
2019-03-28T20:42:22.311Z,63.68
2019-03-28T20:44:55.722Z,63.49
2019-03-28T20:47:29.108Z,63.84
2019-03-28T20:50:02.870Z,64.21
2019-03-28T20:52:36.292Z,64.64
2019-03-28T20:55:09.861Z,65.26
2019-03-28T20:57:43.359Z,65.21
2019-03-28T21:00:20.143Z,66.05
2019-03-28T21:02:55.564Z,65.98
2019-03-28T21:05:29.026Z,66.23
2019-03-28T21:08:03.270Z,67.20
2019-03-28T21:10:40.408Z,67.37
2019-03-28T21:13:13.920Z,67.76
2019-03-28T21:15:47.966Z,68.44
2019-03-28T21:18:21.584Z,68.82
2019-03-28T21:20:54.922Z,68.84
2019-03-28T21:23:28.348Z,69.11
2019-03-28T21:26:01.685Z,69.54
2019-03-28T21:28:46.607Z,70.02
2019-03-28T21:31:10.244Z,70.58
2019-03-28T21:33:43.612Z,71.14
2019-03-28T21:36:29.080Z,71.51
2019-03-28T21:38:52.098Z,71.97
2019-03-28T21:41:25.652Z,72.10
2019-03-28T21:43:59.087Z,72.17
2019-03-28T21:46:32.908Z,72.75
2019-03-28T21:49:06.668Z,72.70
2019-03-28T21:51:40.004Z,73.15
2019-03-28T21:54:14.542Z,73.55
2019-03-28T21:56:48.002Z,73.88
2019-03-28T21:59:22.284Z,73.57
2019-03-28T22:01:56.390Z,73.50
2019-03-28T22:04:29.764Z,73.52
2019-03-28T22:07:03.183Z,74.35
2019-03-28T22:09:39.581Z,74.70
2019-03-28T22:12:11.765Z,75.36
2019-03-28T22:14:47.993Z,76.74
2019-03-28T22:17:20.306Z,77.63
2019-03-28T22:19:53.654Z,77.84
2019-03-28T22:22:27.065Z,76.53
2019-03-28T22:25:00.523Z,76.69
2019-03-28T22:27:33.882Z,76.51
2019-03-28T22:30:08.382Z,76.54
2019-03-28T22:32:41.807Z,76.40
2019-03-28T22:35:15.219Z,76.56
2019-03-28T22:37:48.656Z,77.16
2019-03-28T22:40:22.120Z,76.64
2019-03-28T22:42:58.040Z,76.87
2019-03-28T22:45:31.397Z,77.39
2019-03-28T22:48:11.100Z,78.22
2019-03-28T22:50:40.267Z,78.59
2019-03-28T22:53:13.683Z,78.98
2019-03-28T22:55:47.109Z,79.32
2019-03-28T22:58:20.461Z,79.42
2019-03-28T23:00:55.503Z,78.56
2019-03-28T23:03:28.854Z,78.58
2019-03-28T23:06:02.268Z,78.26
2019-03-28T23:08:35.606Z,78.39
2019-03-28T23:11:09.067Z,78.20
2019-03-28T23:13:42.430Z,77.98
2019-03-28T23:16:15.773Z,78.13
2019-03-28T23:18:50.131Z,78.09
2019-03-28T23:21:23.536Z,78.37
2019-03-28T23:23:56.899Z,78.44
2019-03-28T23:26:30.376Z,78.93
2019-03-28T23:29:03.751Z,79.69
2019-03-28T23:31:37.103Z,79.36
2019-03-28T23:34:10.466Z,79.76
2019-03-28T23:36:43.813Z,79.25
2019-03-28T23:39:17.285Z,79.22
2019-03-28T23:41:50.721Z,79.32
2019-03-28T23:44:24.067Z,78.74
2019-03-28T23:46:57.417Z,78.49
2019-03-28T23:49:30.768Z,79.14
2019-03-28T23:52:04.101Z,79.42
2019-03-28T23:54:37.473Z,79.64
2019-03-28T23:57:10.802Z,80.32
2019-03-28T23:59:44.173Z,80.23
